sensor_id;sensor_type;location;lat;lon;timestamp;temperature;humidity
54846;DHT22;53889;50.084;8.646;2023-05-14T00:01:48;13.90;99.90
54846;DHT22;53889;50.084;8.646;2023-05-14T00:04:16;14.00;99.90
54846;DHT22;53889;50.084;8.646;2023-05-14T00:06:45;13.80;99.90
54846;DHT22;53889;50.084;8.646;2023-05-14T00:09:12;13.80;99.90
54846;DHT22;53889;50.084;8.646;2023-05-14T00:11:38;13.80;99.90
54846;DHT22;53889;50.084;8.646;2023-05-14T00:14:05;13.70;99.90
54846;DHT22;53889;50.084;8.646;2023-05-14T00:16:32;13.80;99.90
54846;DHT22;53889;50.084;8.646;2023-05-14T00:18:58;13.80;99.90
54846;DHT22;53889;50.084;8.646;2023-05-14T00:21:25;13.90;99.90
54846;DHT22;53889;50.084;8.646;2023-05-14T00:23:54;13.80;99.90
54846;DHT22;53889;50.084;8.646;2023-05-14T00:26:20;13.90;99.90
54846;DHT22;53889;50.084;8.646;2023-05-14T00:28:47;13.70;99.90
54846;DHT22;53889;50.084;8.646;2023-05-14T00:31:14;13.60;99.90
54846;DHT22;53889;50.084;8.646;2023-05-14T00:33:41;13.50;99.90
54846;DHT22;53889;50.084;8.646;2023-05-14T00:36:08;13.40;99.90
54846;DHT22;53889;50.084;8.646;2023-05-14T00:38:34;13.40;99.90
54846;DHT22;53889;50.084;8.646;2023-05-14T00:41:03;13.40;99.90
54846;DHT22;53889;50.084;8.646;2023-05-14T00:43:29;13.40;99.90
54846;DHT22;53889;50.084;8.646;2023-05-14T00:45:57;13.30;99.90
54846;DHT22;53889;50.084;8.646;2023-05-14T00:48:24;13.30;99.90
54846;DHT22;53889;50.084;8.646;2023-05-14T00:50:51;13.20;99.90
54846;DHT22;53889;50.084;8.646;2023-05-14T00:53:19;13.20;99.90
54846;DHT22;53889;50.084;8.646;2023-05-14T00:55:48;13.10;99.90
54846;DHT22;53889;50.084;8.646;2023-05-14T00:58:17;13.10;99.90
54846;DHT22;53889;50.084;8.646;2023-05-14T01:00:44;13.10;99.90
54846;DHT22;53889;50.084;8.646;2023-05-14T01:03:11;13.00;99.90
54846;DHT22;53889;50.084;8.646;2023-05-14T01:05:42;12.80;99.90
54846;DHT22;53889;50.084;8.646;2023-05-14T01:08:17;12.70;99.90
54846;DHT22;53889;50.084;8.646;2023-05-14T01:10:50;12.70;99.90
54846;DHT22;53889;50.084;8.646;2023-05-14T01:13:25;12.70;99.90
54846;DHT22;53889;50.084;8.646;2023-05-14T01:15:55;12.70;99.90
54846;DHT22;53889;50.084;8.646;2023-05-14T01:18:23;12.70;99.90
54846;DHT22;53889;50.084;8.646;2023-05-14T01:20:50;12.70;99.90
54846;DHT22;53889;50.084;8.646;2023-05-14T01:23:19;12.70;99.90
54846;DHT22;53889;50.084;8.646;2023-05-14T01:25:46;12.70;99.90
54846;DHT22;53889;50.084;8.646;2023-05-14T01:28:16;12.70;99.90
54846;DHT22;53889;50.084;8.646;2023-05-14T01:30:48;12.70;99.90
54846;DHT22;53889;50.084;8.646;2023-05-14T01:33:17;12.60;99.90
54846;DHT22;53889;50.084;8.646;2023-05-14T01:35:44;12.40;99.90
54846;DHT22;53889;50.084;8.646;2023-05-14T01:38:13;12.30;99.90
54846;DHT22;53889;50.084;8.646;2023-05-14T01:40:43;12.20;99.90
54846;DHT22;53889;50.084;8.646;2023-05-14T01:43:10;12.20;99.90
54846;DHT22;53889;50.084;8.646;2023-05-14T01:45:37;12.20;99.90
54846;DHT22;53889;50.084;8.646;2023-05-14T01:48:04;12.20;99.90
54846;DHT22;53889;50.084;8.646;2023-05-14T01:50:31;12.10;99.90
54846;DHT22;53889;50.084;8.646;2023-05-14T01:52:58;13.70;99.90
54846;DHT22;53889;50.084;8.646;2023-05-14T01:55:26;12.20;99.90
54846;DHT22;53889;50.084;8.646;2023-05-14T01:57:54;12.10;99.90
54846;DHT22;53889;50.084;8.646;2023-05-14T02:00:22;11.80;99.90
54846;DHT22;53889;50.084;8.646;2023-05-14T02:02:49;11.60;99.90
54846;DHT22;53889;50.084;8.646;2023-05-14T02:05:16;11.50;99.90
54846;DHT22;53889;50.084;8.646;2023-05-14T02:07:43;11.60;99.90
54846;DHT22;53889;50.084;8.646;2023-05-14T02:10:10;11.50;99.90
54846;DHT22;53889;50.084;8.646;2023-05-14T02:12:37;11.60;99.90
54846;DHT22;53889;50.084;8.646;2023-05-14T02:15:06;11.50;99.90
54846;DHT22;53889;50.084;8.646;2023-05-14T02:17:34;11.50;99.90
54846;DHT22;53889;50.084;8.646;2023-05-14T02:20:01;11.50;99.90
54846;DHT22;53889;50.084;8.646;2023-05-14T02:22:28;11.50;99.90
54846;DHT22;53889;50.084;8.646;2023-05-14T02:24:55;11.60;99.90
54846;DHT22;53889;50.084;8.646;2023-05-14T02:27:22;11.60;99.90
54846;DHT22;53889;50.084;8.646;2023-05-14T02:29:49;11.60;99.90
54846;DHT22;53889;50.084;8.646;2023-05-14T02:32:17;11.60;99.90
54846;DHT22;53889;50.084;8.646;2023-05-14T02:34:44;11.80;99.90
54846;DHT22;53889;50.084;8.646;2023-05-14T02:37:11;11.70;99.90
54846;DHT22;53889;50.084;8.646;2023-05-14T02:39:38;11.70;99.90
54846;DHT22;53889;50.084;8.646;2023-05-14T02:42:05;11.50;99.90
54846;DHT22;53889;50.084;8.646;2023-05-14T02:44:32;11.30;99.90
54846;DHT22;53889;50.084;8.646;2023-05-14T02:46:59;11.30;99.90
54846;DHT22;53889;50.084;8.646;2023-05-14T02:49:28;11.30;99.90
54846;DHT22;53889;50.084;8.646;2023-05-14T02:51:55;11.50;99.90
54846;DHT22;53889;50.084;8.646;2023-05-14T02:54:22;11.50;99.90
54846;DHT22;53889;50.084;8.646;2023-05-14T02:56:49;13.50;99.90
54846;DHT22;53889;50.084;8.646;2023-05-14T02:59:16;13.70;99.90
54846;DHT22;53889;50.084;8.646;2023-05-14T03:01:42;11.50;99.90
54846;DHT22;53889;50.084;8.646;2023-05-14T03:04:10;11.50;99.90
54846;DHT22;53889;50.084;8.646;2023-05-14T03:06:38;11.50;99.90
54846;DHT22;53889;50.084;8.646;2023-05-14T03:09:05;11.50;99.90
54846;DHT22;53889;50.084;8.646;2023-05-14T03:11:32;11.60;99.90
54846;DHT22;53889;50.084;8.646;2023-05-14T03:13:59;11.50;99.90
54846;DHT22;53889;50.084;8.646;2023-05-14T03:16:25;11.60;99.90
54846;DHT22;53889;50.084;8.646;2023-05-14T03:18:52;12.20;99.90
54846;DHT22;53889;50.084;8.646;2023-05-14T03:21:19;11.60;99.90
54846;DHT22;53889;50.084;8.646;2023-05-14T03:23:49;11.50;99.90
54846;DHT22;53889;50.084;8.646;2023-05-14T03:26:17;11.50;99.90
54846;DHT22;53889;50.084;8.646;2023-05-14T03:28:44;12.60;99.90
54846;DHT22;53889;50.084;8.646;2023-05-14T03:31:11;11.50;99.90
54846;DHT22;53889;50.084;8.646;2023-05-14T03:33:38;11.50;99.90
54846;DHT22;53889;50.084;8.646;2023-05-14T03:36:05;11.50;99.90
54846;DHT22;53889;50.084;8.646;2023-05-14T03:38:32;11.50;99.90
54846;DHT22;53889;50.084;8.646;2023-05-14T03:41:00;11.50;99.90
54846;DHT22;53889;50.084;8.646;2023-05-14T03:43:27;11.50;99.90
54846;DHT22;53889;50.084;8.646;2023-05-14T03:45:54;11.40;99.90
54846;DHT22;53889;50.084;8.646;2023-05-14T03:48:21;11.40;99.90
54846;DHT22;53889;50.084;8.646;2023-05-14T03:50:48;12.60;99.90
54846;DHT22;53889;50.084;8.646;2023-05-14T03:53:16;11.50;99.90
54846;DHT22;53889;50.084;8.646;2023-05-14T03:55:44;11.50;99.90
54846;DHT22;53889;50.084;8.646;2023-05-14T03:58:12;11.50;99.90
54846;DHT22;53889;50.084;8.646;2023-05-14T04:00:40;11.50;99.90
54846;DHT22;53889;50.084;8.646;2023-05-14T04:03:07;11.50;99.90
54846;DHT22;53889;50.084;8.646;2023-05-14T04:05:34;11.50;99.90
54846;DHT22;53889;50.084;8.646;2023-05-14T04:08:01;11.50;99.90
54846;DHT22;53889;50.084;8.646;2023-05-14T04:10:28;14.50;99.90
54846;DHT22;53889;50.084;8.646;2023-05-14T04:12:54;11.50;99.90
54846;DHT22;53889;50.084;8.646;2023-05-14T04:15:31;11.50;99.90
54846;DHT22;53889;50.084;8.646;2023-05-14T04:18:00;11.50;99.90
54846;DHT22;53889;50.084;8.646;2023-05-14T04:20:27;11.50;99.90
54846;DHT22;53889;50.084;8.646;2023-05-14T04:22:54;11.50;99.90
54846;DHT22;53889;50.084;8.646;2023-05-14T04:25:20;11.40;99.90
54846;DHT22;53889;50.084;8.646;2023-05-14T04:27:49;11.50;99.90
54846;DHT22;53889;50.084;8.646;2023-05-14T04:30:16;11.50;99.90
54846;DHT22;53889;50.084;8.646;2023-05-14T04:32:45;12.30;99.90
54846;DHT22;53889;50.084;8.646;2023-05-14T04:35:12;11.50;99.90
54846;DHT22;53889;50.084;8.646;2023-05-14T04:37:39;11.50;99.90
54846;DHT22;53889;50.084;8.646;2023-05-14T04:40:09;11.50;99.90
54846;DHT22;53889;50.084;8.646;2023-05-14T04:42:37;11.60;99.90
54846;DHT22;53889;50.084;8.646;2023-05-14T04:45:05;14.00;99.90
54846;DHT22;53889;50.084;8.646;2023-05-14T04:47:57;11.90;99.90
54846;DHT22;53889;50.084;8.646;2023-05-14T04:50:23;12.00;99.90
54846;DHT22;53889;50.084;8.646;2023-05-14T04:52:51;12.10;99.90
54846;DHT22;53889;50.084;8.646;2023-05-14T04:55:17;12.10;99.90
54846;DHT22;53889;50.084;8.646;2023-05-14T04:57:44;12.10;99.90
54846;DHT22;53889;50.084;8.646;2023-05-14T05:00:12;12.20;99.90
54846;DHT22;53889;50.084;8.646;2023-05-14T05:02:39;12.30;99.90
54846;DHT22;53889;50.084;8.646;2023-05-14T05:05:08;12.30;99.90
54846;DHT22;53889;50.084;8.646;2023-05-14T05:07:35;12.40;99.90
54846;DHT22;53889;50.084;8.646;2023-05-14T05:10:02;12.30;99.90
54846;DHT22;53889;50.084;8.646;2023-05-14T05:12:29;12.40;99.90
54846;DHT22;53889;50.084;8.646;2023-05-14T05:14:56;12.60;99.90
54846;DHT22;53889;50.084;8.646;2023-05-14T05:17:23;13.10;99.90
54846;DHT22;53889;50.084;8.646;2023-05-14T05:19:50;12.70;99.90
54846;DHT22;53889;50.084;8.646;2023-05-14T05:22:18;12.70;99.90
54846;DHT22;53889;50.084;8.646;2023-05-14T05:24:45;13.10;99.90
54846;DHT22;53889;50.084;8.646;2023-05-14T05:27:12;12.80;99.90
54846;DHT22;53889;50.084;8.646;2023-05-14T05:29:41;12.80;99.90
54846;DHT22;53889;50.084;8.646;2023-05-14T05:32:07;12.90;99.90
54846;DHT22;53889;50.084;8.646;2023-05-14T05:34:34;12.90;99.90
54846;DHT22;53889;50.084;8.646;2023-05-14T05:37:01;13.00;99.90
54846;DHT22;53889;50.084;8.646;2023-05-14T05:39:31;13.00;99.90
54846;DHT22;53889;50.084;8.646;2023-05-14T05:41:59;13.00;99.90
54846;DHT22;53889;50.084;8.646;2023-05-14T05:44:26;13.10;99.90
54846;DHT22;53889;50.084;8.646;2023-05-14T05:46:53;13.30;99.90
54846;DHT22;53889;50.084;8.646;2023-05-14T05:49:21;13.30;99.90
54846;DHT22;53889;50.084;8.646;2023-05-14T05:51:48;13.40;99.90
54846;DHT22;53889;50.084;8.646;2023-05-14T05:54:15;13.50;99.90
54846;DHT22;53889;50.084;8.646;2023-05-14T05:56:43;13.70;99.90
54846;DHT22;53889;50.084;8.646;2023-05-14T05:59:10;14.10;99.90
54846;DHT22;53889;50.084;8.646;2023-05-14T06:01:37;14.80;99.90
54846;DHT22;53889;50.084;8.646;2023-05-14T06:04:05;16.00;99.90
54846;DHT22;53889;50.084;8.646;2023-05-14T06:06:32;17.00;99.90
54846;DHT22;53889;50.084;8.646;2023-05-14T06:08:59;17.80;99.90
54846;DHT22;53889;50.084;8.646;2023-05-14T06:11:26;18.50;99.50
54846;DHT22;53889;50.084;8.646;2023-05-14T06:13:56;19.00;98.40
54846;DHT22;53889;50.084;8.646;2023-05-14T06:16:26;19.10;97.90
54846;DHT22;53889;50.084;8.646;2023-05-14T06:18:53;16.60;96.90
54846;DHT22;53889;50.084;8.646;2023-05-14T06:21:21;19.60;97.10
54846;DHT22;53889;50.084;8.646;2023-05-14T06:23:47;20.00;95.60
54846;DHT22;53889;50.084;8.646;2023-05-14T06:26:14;20.70;95.50
54846;DHT22;53889;50.084;8.646;2023-05-14T06:28:41;20.60;94.60
54846;DHT22;53889;50.084;8.646;2023-05-14T06:31:09;20.60;94.10
54846;DHT22;53889;50.084;8.646;2023-05-14T06:33:36;19.80;94.40
54846;DHT22;53889;50.084;8.646;2023-05-14T06:36:04;19.10;95.40
54846;DHT22;53889;50.084;8.646;2023-05-14T06:38:32;18.30;96.30
54846;DHT22;53889;50.084;8.646;2023-05-14T06:40:59;18.00;97.20
54846;DHT22;53889;50.084;8.646;2023-05-14T06:43:26;17.90;97.40
54846;DHT22;53889;50.084;8.646;2023-05-14T06:45:53;17.90;97.80
54846;DHT22;53889;50.084;8.646;2023-05-14T06:48:21;18.20;97.50
54846;DHT22;53889;50.084;8.646;2023-05-14T06:50:48;19.10;96.60
54846;DHT22;53889;50.084;8.646;2023-05-14T06:53:16;20.20;95.10
54846;DHT22;53889;50.084;8.646;2023-05-14T06:55:42;21.00;93.90
54846;DHT22;53889;50.084;8.646;2023-05-14T06:58:09;21.10;92.90
54846;DHT22;53889;50.084;8.646;2023-05-14T07:00:36;22.20;91.50
54846;DHT22;53889;50.084;8.646;2023-05-14T07:03:03;22.30;91.20
54846;DHT22;53889;50.084;8.646;2023-05-14T07:05:31;22.40;90.50
54846;DHT22;53889;50.084;8.646;2023-05-14T07:07:58;22.40;90.10
54846;DHT22;53889;50.084;8.646;2023-05-14T07:10:25;23.00;90.00
54846;DHT22;53889;50.084;8.646;2023-05-14T07:12:52;22.30;90.00
54846;DHT22;53889;50.084;8.646;2023-05-14T07:15:20;22.70;88.30
54846;DHT22;53889;50.084;8.646;2023-05-14T07:17:47;22.60;88.50
54846;DHT22;53889;50.084;8.646;2023-05-14T07:20:14;22.60;87.30
54846;DHT22;53889;50.084;8.646;2023-05-14T07:22:43;22.20;88.30
54846;DHT22;53889;50.084;8.646;2023-05-14T07:25:10;22.60;88.40
54846;DHT22;53889;50.084;8.646;2023-05-14T07:27:37;22.40;88.90
54846;DHT22;53889;50.084;8.646;2023-05-14T07:30:04;22.00;88.00
54846;DHT22;53889;50.084;8.646;2023-05-14T07:32:31;22.20;88.00
54846;DHT22;53889;50.084;8.646;2023-05-14T07:34:58;22.50;87.60
54846;DHT22;53889;50.084;8.646;2023-05-14T07:37:25;22.80;86.90
54846;DHT22;53889;50.084;8.646;2023-05-14T07:39:53;22.60;86.20
54846;DHT22;53889;50.084;8.646;2023-05-14T07:42:20;23.40;86.90
54846;DHT22;53889;50.084;8.646;2023-05-14T07:44:47;24.30;84.60
54846;DHT22;53889;50.084;8.646;2023-05-14T07:47:15;23.70;84.50
54846;DHT22;53889;50.084;8.646;2023-05-14T07:49:42;24.10;83.70
54846;DHT22;53889;50.084;8.646;2023-05-14T07:52:09;23.80;83.00
54846;DHT22;53889;50.084;8.646;2023-05-14T07:54:35;24.30;82.00
54846;DHT22;53889;50.084;8.646;2023-05-14T07:57:04;24.80;80.30
54846;DHT22;53889;50.084;8.646;2023-05-14T07:59:31;24.60;79.60
54846;DHT22;53889;50.084;8.646;2023-05-14T08:01:57;24.80;80.30
54846;DHT22;53889;50.084;8.646;2023-05-14T08:04:24;25.50;78.90
54846;DHT22;53889;50.084;8.646;2023-05-14T08:06:51;25.50;77.30
54846;DHT22;53889;50.084;8.646;2023-05-14T08:09:18;25.80;77.60
54846;DHT22;53889;50.084;8.646;2023-05-14T08:11:45;25.60;76.90
54846;DHT22;53889;50.084;8.646;2023-05-14T08:14:13;25.60;76.20
54846;DHT22;53889;50.084;8.646;2023-05-14T08:16:40;25.80;76.90
54846;DHT22;53889;50.084;8.646;2023-05-14T08:19:07;25.40;76.80
54846;DHT22;53889;50.084;8.646;2023-05-14T08:21:33;24.80;77.20
54846;DHT22;53889;50.084;8.646;2023-05-14T08:24:00;24.70;79.90
54846;DHT22;53889;50.084;8.646;2023-05-14T08:26:27;24.60;79.00
54846;DHT22;53889;50.084;8.646;2023-05-14T08:28:54;25.00;78.80
54846;DHT22;53889;50.084;8.646;2023-05-14T08:31:22;24.70;77.40
54846;DHT22;53889;50.084;8.646;2023-05-14T08:33:49;24.50;77.90
54846;DHT22;53889;50.084;8.646;2023-05-14T08:36:15;24.50;78.50
54846;DHT22;53889;50.084;8.646;2023-05-14T08:38:42;24.50;77.80
54846;DHT22;53889;50.084;8.646;2023-05-14T08:41:10;23.80;78.70
54846;DHT22;53889;50.084;8.646;2023-05-14T08:43:46;23.80;78.70
54846;DHT22;53889;50.084;8.646;2023-05-14T08:46:16;23.30;79.00
54846;DHT22;53889;50.084;8.646;2023-05-14T08:48:47;23.50;80.40
54846;DHT22;53889;50.084;8.646;2023-05-14T08:51:16;23.70;79.50
54846;DHT22;53889;50.084;8.646;2023-05-14T08:53:43;23.50;80.00
54846;DHT22;53889;50.084;8.646;2023-05-14T08:56:10;24.00;76.60
54846;DHT22;53889;50.084;8.646;2023-05-14T08:58:37;24.50;75.10
54846;DHT22;53889;50.084;8.646;2023-05-14T09:01:04;25.80;73.70
54846;DHT22;53889;50.084;8.646;2023-05-14T09:03:32;25.80;72.20
54846;DHT22;53889;50.084;8.646;2023-05-14T09:06:00;24.80;72.90
54846;DHT22;53889;50.084;8.646;2023-05-14T09:08:27;24.10;74.40
54846;DHT22;53889;50.084;8.646;2023-05-14T09:10:55;23.70;76.50
54846;DHT22;53889;50.084;8.646;2023-05-14T09:13:21;23.90;75.70
54846;DHT22;53889;50.084;8.646;2023-05-14T09:15:48;24.20;74.30
54846;DHT22;53889;50.084;8.646;2023-05-14T09:18:16;24.00;73.90
54846;DHT22;53889;50.084;8.646;2023-05-14T09:20:43;23.80;76.30
54846;DHT22;53889;50.084;8.646;2023-05-14T09:23:11;24.80;74.70
54846;DHT22;53889;50.084;8.646;2023-05-14T09:25:38;25.00;75.20
54846;DHT22;53889;50.084;8.646;2023-05-14T09:28:05;24.50;73.80
54846;DHT22;53889;50.084;8.646;2023-05-14T09:30:34;23.10;76.70
54846;DHT22;53889;50.084;8.646;2023-05-14T09:33:01;22.50;78.10
54846;DHT22;53889;50.084;8.646;2023-05-14T09:35:28;21.50;80.30
54846;DHT22;53889;50.084;8.646;2023-05-14T09:37:56;21.40;81.10
54846;DHT22;53889;50.084;8.646;2023-05-14T09:40:24;23.40;81.20
54846;DHT22;53889;50.084;8.646;2023-05-14T09:42:51;21.20;80.50
54846;DHT22;53889;50.084;8.646;2023-05-14T09:45:18;20.80;81.60
54846;DHT22;53889;50.084;8.646;2023-05-14T09:47:45;21.20;82.60
54846;DHT22;53889;50.084;8.646;2023-05-14T09:50:12;21.80;80.80
54846;DHT22;53889;50.084;8.646;2023-05-14T09:52:39;21.80;80.20
54846;DHT22;53889;50.084;8.646;2023-05-14T09:55:06;21.60;80.60
54846;DHT22;53889;50.084;8.646;2023-05-14T09:57:35;21.50;80.50
54846;DHT22;53889;50.084;8.646;2023-05-14T10:00:02;21.30;80.90
54846;DHT22;53889;50.084;8.646;2023-05-14T10:02:34;21.20;80.00
54846;DHT22;53889;50.084;8.646;2023-05-14T10:05:04;21.10;80.40
54846;DHT22;53889;50.084;8.646;2023-05-14T10:07:35;20.90;81.10
54846;DHT22;53889;50.084;8.646;2023-05-14T10:10:06;21.00;81.60
54846;DHT22;53889;50.084;8.646;2023-05-14T10:12:35;20.70;81.80
54846;DHT22;53889;50.084;8.646;2023-05-14T10:15:10;20.40;81.70
54846;DHT22;53889;50.084;8.646;2023-05-14T10:17:40;20.30;82.40
54846;DHT22;53889;50.084;8.646;2023-05-14T10:20:10;20.30;81.20
54846;DHT22;53889;50.084;8.646;2023-05-14T10:22:40;20.40;81.00
54846;DHT22;53889;50.084;8.646;2023-05-14T10:25:08;20.30;80.90
54846;DHT22;53889;50.084;8.646;2023-05-14T10:27:36;20.40;80.10
54846;DHT22;53889;50.084;8.646;2023-05-14T10:30:09;20.60;80.20
54846;DHT22;53889;50.084;8.646;2023-05-14T10:32:36;20.90;79.50
54846;DHT22;53889;50.084;8.646;2023-05-14T10:35:14;21.30;77.40
54846;DHT22;53889;50.084;8.646;2023-05-14T10:37:43;21.40;77.40
54846;DHT22;53889;50.084;8.646;2023-05-14T10:40:11;22.30;77.60
54846;DHT22;53889;50.084;8.646;2023-05-14T10:42:39;22.00;76.70
54846;DHT22;53889;50.084;8.646;2023-05-14T10:45:09;21.70;76.80
54846;DHT22;53889;50.084;8.646;2023-05-14T10:47:37;21.90;76.70
54846;DHT22;53889;50.084;8.646;2023-05-14T10:50:05;22.20;76.80
54846;DHT22;53889;50.084;8.646;2023-05-14T10:52:33;21.70;76.50
54846;DHT22;53889;50.084;8.646;2023-05-14T10:55:02;22.10;76.60
54846;DHT22;53889;50.084;8.646;2023-05-14T10:57:33;23.10;75.80
54846;DHT22;53889;50.084;8.646;2023-05-14T11:00:02;24.40;74.00
54846;DHT22;53889;50.084;8.646;2023-05-14T11:02:33;24.80;71.60
54846;DHT22;53889;50.084;8.646;2023-05-14T11:05:02;24.80;70.80
54846;DHT22;53889;50.084;8.646;2023-05-14T11:07:31;24.80;70.40
54846;DHT22;53889;50.084;8.646;2023-05-14T11:10:03;25.40;71.00
54846;DHT22;53889;50.084;8.646;2023-05-14T11:12:31;25.30;70.80
54846;DHT22;53889;50.084;8.646;2023-05-14T11:14:59;25.80;69.30
54846;DHT22;53889;50.084;8.646;2023-05-14T11:17:28;26.30;68.70
54846;DHT22;53889;50.084;8.646;2023-05-14T11:19:56;26.10;68.40
54846;DHT22;53889;50.084;8.646;2023-05-14T11:22:24;26.80;69.00
54846;DHT22;53889;50.084;8.646;2023-05-14T11:24:51;25.30;69.40
54846;DHT22;53889;50.084;8.646;2023-05-14T11:27:18;25.50;69.70
54846;DHT22;53889;50.084;8.646;2023-05-14T11:29:47;25.00;69.50
54846;DHT22;53889;50.084;8.646;2023-05-14T11:32:15;24.00;72.00
54846;DHT22;53889;50.084;8.646;2023-05-14T11:34:44;24.50;72.60
54846;DHT22;53889;50.084;8.646;2023-05-14T11:37:13;25.50;71.50
54846;DHT22;53889;50.084;8.646;2023-05-14T11:39:46;24.80;71.70
54846;DHT22;53889;50.084;8.646;2023-05-14T11:42:13;24.60;71.30
54846;DHT22;53889;50.084;8.646;2023-05-14T11:44:43;24.40;70.50
54846;DHT22;53889;50.084;8.646;2023-05-14T11:47:10;24.20;72.10
54846;DHT22;53889;50.084;8.646;2023-05-14T11:49:37;24.10;73.10
54846;DHT22;53889;50.084;8.646;2023-05-14T11:52:07;23.50;72.40
54846;DHT22;53889;50.084;8.646;2023-05-14T11:54:34;23.10;73.40
54846;DHT22;53889;50.084;8.646;2023-05-14T11:57:06;25.80;76.10
54846;DHT22;53889;50.084;8.646;2023-05-14T11:59:33;23.00;74.00
54846;DHT22;53889;50.084;8.646;2023-05-14T12:02:00;23.50;74.20
54846;DHT22;53889;50.084;8.646;2023-05-14T12:04:28;23.90;73.30
54846;DHT22;53889;50.084;8.646;2023-05-14T12:06:57;24.90;70.90
54846;DHT22;53889;50.084;8.646;2023-05-14T12:09:26;25.40;70.50
54846;DHT22;53889;50.084;8.646;2023-05-14T12:11:52;26.00;69.30
54846;DHT22;53889;50.084;8.646;2023-05-14T12:14:20;26.30;68.10
54846;DHT22;53889;50.084;8.646;2023-05-14T12:16:48;26.50;66.70
54846;DHT22;53889;50.084;8.646;2023-05-14T12:19:16;26.00;66.80
54846;DHT22;53889;50.084;8.646;2023-05-14T12:21:44;24.60;67.30
54846;DHT22;53889;50.084;8.646;2023-05-14T12:24:11;23.70;69.50
54846;DHT22;53889;50.084;8.646;2023-05-14T12:26:43;23.30;71.40
54846;DHT22;53889;50.084;8.646;2023-05-14T12:29:12;22.70;71.60
54846;DHT22;53889;50.084;8.646;2023-05-14T12:31:45;25.40;73.10
54846;DHT22;53889;50.084;8.646;2023-05-14T12:34:12;24.70;73.50
54846;DHT22;53889;50.084;8.646;2023-05-14T12:36:39;22.60;72.30
54846;DHT22;53889;50.084;8.646;2023-05-14T12:39:06;22.60;73.10
54846;DHT22;53889;50.084;8.646;2023-05-14T12:41:32;22.30;73.60
54846;DHT22;53889;50.084;8.646;2023-05-14T12:44:02;22.10;74.20
54846;DHT22;53889;50.084;8.646;2023-05-14T12:46:29;21.90;73.30
54846;DHT22;53889;50.084;8.646;2023-05-14T12:48:56;22.50;73.30
54846;DHT22;53889;50.084;8.646;2023-05-14T12:51:23;23.20;72.70
54846;DHT22;53889;50.084;8.646;2023-05-14T12:53:50;23.90;70.40
54846;DHT22;53889;50.084;8.646;2023-05-14T12:56:18;24.60;70.30
54846;DHT22;53889;50.084;8.646;2023-05-14T12:58:46;25.20;67.80
54846;DHT22;53889;50.084;8.646;2023-05-14T13:01:14;25.60;67.50
54846;DHT22;53889;50.084;8.646;2023-05-14T13:03:40;25.90;66.00
54846;DHT22;53889;50.084;8.646;2023-05-14T13:06:07;25.60;65.10
54846;DHT22;53889;50.084;8.646;2023-05-14T13:08:34;25.00;67.10
54846;DHT22;53889;50.084;8.646;2023-05-14T13:11:00;25.70;68.70
54846;DHT22;53889;50.084;8.646;2023-05-14T13:13:27;23.40;69.60
54846;DHT22;53889;50.084;8.646;2023-05-14T13:15:54;23.10;69.50
54846;DHT22;53889;50.084;8.646;2023-05-14T13:18:22;22.80;71.10
54846;DHT22;53889;50.084;8.646;2023-05-14T13:20:51;22.80;73.10
54846;DHT22;53889;50.084;8.646;2023-05-14T13:23:18;21.70;73.40
54846;DHT22;53889;50.084;8.646;2023-05-14T13:25:44;21.50;74.20
54846;DHT22;53889;50.084;8.646;2023-05-14T13:28:11;21.30;74.20
54846;DHT22;53889;50.084;8.646;2023-05-14T13:30:38;22.10;73.80
54846;DHT22;53889;50.084;8.646;2023-05-14T13:33:05;21.50;74.10
54846;DHT22;53889;50.084;8.646;2023-05-14T13:35:33;21.50;74.50
54846;DHT22;53889;50.084;8.646;2023-05-14T13:38:00;21.50;72.70
54846;DHT22;53889;50.084;8.646;2023-05-14T13:40:26;21.80;72.20
54846;DHT22;53889;50.084;8.646;2023-05-14T13:42:53;21.90;71.20
54846;DHT22;53889;50.084;8.646;2023-05-14T13:45:20;21.90;71.30
54846;DHT22;53889;50.084;8.646;2023-05-14T13:47:46;21.80;71.90
54846;DHT22;53889;50.084;8.646;2023-05-14T13:50:13;21.80;71.90
54846;DHT22;53889;50.084;8.646;2023-05-14T13:52:42;21.90;72.30
54846;DHT22;53889;50.084;8.646;2023-05-14T13:55:08;22.00;71.90
54846;DHT22;53889;50.084;8.646;2023-05-14T13:57:35;21.90;70.20
54846;DHT22;53889;50.084;8.646;2023-05-14T14:00:05;22.00;70.40
54846;DHT22;53889;50.084;8.646;2023-05-14T14:02:32;22.20;70.40
54846;DHT22;53889;50.084;8.646;2023-05-14T14:04:59;22.10;70.50
54846;DHT22;53889;50.084;8.646;2023-05-14T14:07:25;21.90;70.80
54846;DHT22;53889;50.084;8.646;2023-05-14T14:09:53;22.10;71.70
54846;DHT22;53889;50.084;8.646;2023-05-14T14:12:20;22.10;70.90
54846;DHT22;53889;50.084;8.646;2023-05-14T14:14:47;22.00;71.30
54846;DHT22;53889;50.084;8.646;2023-05-14T14:17:13;21.70;70.70
54846;DHT22;53889;50.084;8.646;2023-05-14T14:19:40;21.50;71.60
54846;DHT22;53889;50.084;8.646;2023-05-14T14:22:07;21.50;72.20
54846;DHT22;53889;50.084;8.646;2023-05-14T14:24:34;21.50;72.30
54846;DHT22;53889;50.084;8.646;2023-05-14T14:27:02;21.40;72.30
54846;DHT22;53889;50.084;8.646;2023-05-14T14:29:29;21.50;72.40
54846;DHT22;53889;50.084;8.646;2023-05-14T14:31:56;21.60;71.60
54846;DHT22;53889;50.084;8.646;2023-05-14T14:34:22;21.60;71.30
54846;DHT22;53889;50.084;8.646;2023-05-14T14:36:49;21.70;71.70
54846;DHT22;53889;50.084;8.646;2023-05-14T14:39:15;21.80;71.10
54846;DHT22;53889;50.084;8.646;2023-05-14T14:41:42;21.80;70.80
54846;DHT22;53889;50.084;8.646;2023-05-14T14:44:10;22.40;71.70
54846;DHT22;53889;50.084;8.646;2023-05-14T14:46:37;21.90;72.30
54846;DHT22;53889;50.084;8.646;2023-05-14T14:49:04;22.00;71.70
54846;DHT22;53889;50.084;8.646;2023-05-14T14:51:30;22.00;71.90
54846;DHT22;53889;50.084;8.646;2023-05-14T14:53:57;21.80;71.20
54846;DHT22;53889;50.084;8.646;2023-05-14T14:56:25;21.90;72.00
54846;DHT22;53889;50.084;8.646;2023-05-14T14:58:52;21.90;71.20
54846;DHT22;53889;50.084;8.646;2023-05-14T15:01:20;21.90;70.60
54846;DHT22;53889;50.084;8.646;2023-05-14T15:03:47;21.80;71.70
54846;DHT22;53889;50.084;8.646;2023-05-14T15:06:14;21.90;70.60
54846;DHT22;53889;50.084;8.646;2023-05-14T15:08:40;21.80;71.50
54846;DHT22;53889;50.084;8.646;2023-05-14T15:11:07;22.10;70.50
54846;DHT22;53889;50.084;8.646;2023-05-14T15:13:34;22.10;69.50
54846;DHT22;53889;50.084;8.646;2023-05-14T15:16:01;22.10;68.80
54846;DHT22;53889;50.084;8.646;2023-05-14T15:18:29;21.80;69.10
54846;DHT22;53889;50.084;8.646;2023-05-14T15:20:55;21.80;69.80
54846;DHT22;53889;50.084;8.646;2023-05-14T15:23:22;21.80;69.70
54846;DHT22;53889;50.084;8.646;2023-05-14T15:25:49;22.30;70.30
54846;DHT22;53889;50.084;8.646;2023-05-14T15:28:16;21.70;69.60
54846;DHT22;53889;50.084;8.646;2023-05-14T15:30:42;21.70;69.60
54846;DHT22;53889;50.084;8.646;2023-05-14T15:33:09;21.80;69.50